Terminal Aerodrome Forecast
Issued by NWS

Home | Current Version | Previous Version | Text Only | Print | Product List | Glossary On
Versions: 1 2 3 4 5 6 7 8 9 10 11 12 13 14 15 16 17 18 19 20 21 22 23
000
FTUS43 KSGF 041300 AAA
TAFJLN
TAF AMD
KJLN 041310Z 0413/0512 02012G20KT 3SM -SNPL BR SCT007 OVC015
     FM041400 02013G20KT 1 1/2SM -SN BR OVC007
      TEMPO 0415/0418 3/4SM -SN BR OVC004
     FM042300 03010KT 3SM -SN BR OVC015
     FM050000 03008KT P6SM OVC050
     FM050200 03008KT P6SM BKN080=

USA.gov is the U.S. government's official web portal to all federal, state and local government web resources and services.